Map

Track Data

SID SEASON NUMBER BASIN SUBBASIN NAME ISO_TIME NATURE LAT LON WMO_WIND WMO_PRES WMO_AGENCY TRACK_TYPE DIST2LAND LANDFALL IFLAG USA_AGENCY USA_ATCF_ID USA_LAT USA_LON USA_RECORD USA_STATUS USA_WIND USA_PRES USA_SSHS USA_R34_NE USA_R34_SE USA_R34_SW USA_R34_NW USA_R50_NE USA_R50_SE USA_R50_SW USA_R50_NW USA_R64_NE USA_R64_SE USA_R64_SW USA_R64_NW USA_POCI USA_ROCI USA_RMW USA_EYE TOKYO_LAT TOKYO_LON TOKYO_GRADE TOKYO_WIND TOKYO_PRES TOKYO_R50_DIR TOKYO_R50_LONG TOKYO_R50_SHORT TOKYO_R30_DIR TOKYO_R30_LONG TOKYO_R30_SHORT TOKYO_LAND CMA_LAT CMA_LON CMA_CAT CMA_WIND CMA_PRES HKO_LAT HKO_LON HKO_CAT HKO_WIND HKO_PRES NEWDELHI_LAT NEWDELHI_LON NEWDELHI_GRADE NEWDELHI_WIND NEWDELHI_PRES NEWDELHI_CI NEWDELHI_DP NEWDELHI_POCI REUNION_LAT REUNION_LON REUNION_TYPE REUNION_WIND REUNION_PRES REUNION_TNUM REUNION_CI REUNION_RMW REUNION_R34_NE REUNION_R34_SE REUNION_R34_SW REUNION_R34_NW REUNION_R50_NE REUNION_R50_SE REUNION_R50_SW REUNION_R50_NW REUNION_R64_NE REUNION_R64_SE REUNION_R64_SW REUNION_R64_NW BOM_LAT BOM_LON BOM_TYPE BOM_WIND BOM_PRES BOM_TNUM BOM_CI BOM_RMW BOM_R34_NE BOM_R34_SE BOM_R34_SW BOM_R34_NW BOM_R50_NE BOM_R50_SE BOM_R50_SW BOM_R50_NW BOM_R64_NE BOM_R64_SE BOM_R64_SW BOM_R64_NW BOM_ROCI BOM_POCI BOM_EYE BOM_POS_METHOD BOM_PRES_METHOD NADI_LAT NADI_LON NADI_CAT NADI_WIND NADI_PRES WELLINGTON_LAT WELLINGTON_LON WELLINGTON_WIND WELLINGTON_PRES DS824_LAT DS824_LON DS824_STAGE DS824_WIND DS824_PRES TD9636_LAT TD9636_LON TD9636_STAGE TD9636_WIND TD9636_PRES TD9635_LAT TD9635_LON TD9635_WIND TD9635_PRES TD9635_ROCI NEUMANN_LAT NEUMANN_LON NEUMANN_CLASS NEUMANN_WIND NEUMANN_PRES MLC_LAT MLC_LON MLC_CLASS MLC_WIND MLC_PRES USA_GUST BOM_GUST BOM_GUST_PER REUNION_GUST REUNION_GUST_PER USA_SEAHGT USA_SEARAD_NE USA_SEARAD_SE USA_SEARAD_SW USA_SEARAD_NW STORM_SPEED STORM_DIR
1906060S15058 1906 9 SI MM NOT_NAMED 1906-02-28 18:00:00 NR -14.5000 57.8000 main 626 615 __________O___ -1 -14.5000 57.8000 7 3 229
1906060S15058 1906 9 SI MM NOT_NAMED 1906-02-28 21:00:00 NR -14.5996 57.6776 main 615 604 __________P___ -1 -14.5996 57.6776 7 3 230
1906060S15058 1906 9 SI MM NOT_NAMED 1906-03-01 00:00:00 NR -14.7194 57.5242 main 604 582 __________P___ -1 -14.7194 57.5242 7 5 232
1906060S15058 1906 9 SI MM NOT_NAMED 1906-03-01 03:00:00 NR -14.8796 57.3088 main 582 561 __________P___ -1 -14.8796 57.3088 7 6 233
1906060S15058 1906 9 SI MM NOT_NAMED 1906-03-01 06:00:00 NR -15.1000 57.0000 main 561 534 __________O___ -1 -15.1000 57.0000 7 9 234
1906060S15058 1906 9 SI MM NOT_NAMED 1906-03-01 09:00:00 NR -15.3930 56.5787 main 534 511 __________P___ -1 -15.3930 56.5787 7 11 234
1906060S15058 1906 9 SI MM NOT_NAMED 1906-03-01 12:00:00 NR -15.7408 56.0757 main 514 490 __________P___ -1 -15.7408 56.0757 7 12 234
1906060S15058 1906 9 SI MM NOT_NAMED 1906-03-01 15:00:00 NR -16.1180 55.5348 main 494 475 __________P___ -1 -16.1180 55.5348 7 13 234
1906060S15058 1906 9 SI MM NOT_NAMED 1906-03-01 18:00:00 NR -16.5000 55.0000 main 481 455 __________O___ -1 -16.5000 55.0000 7 12 233
1906060S15058 1906 9 SI MM NOT_NAMED 1906-03-01 21:00:00 NR -16.8538 54.5191 main 459 428 __________P___ -1 -16.8538 54.5191 7 12 232
1906060S15058 1906 9 SI MM NOT_NAMED 1906-03-02 00:00:00 NR -17.2072 54.0547 main 433 399 __________P___ -1 -17.2072 54.0547 7 11 231
1906060S15058 1906 9 SI MM NOT_NAMED 1906-03-02 03:00:00 NR -17.5570 53.6129 main 403 381 __________P___ -1 -17.5570 53.6129 7 11 230
1906060S15058 1906 9 SI MM NOT_NAMED 1906-03-02 06:00:00 NR -17.9000 53.2000 main 381 353 __________O___ -1 -17.9000 53.2000 7 10 230
1906060S15058 1906 9 SI MM NOT_NAMED 1906-03-02 09:00:00 NR -18.2117 52.7883 main 353 318 __________P___ -1 -18.2117 52.7883 7 10 230
1906060S15058 1906 9 SI MM NOT_NAMED 1906-03-02 12:00:00 NR -18.5199 52.4095 main 318 292 __________P___ -1 -18.5199 52.4095 7 9 227
1906060S15058 1906 9 SI MM NOT_NAMED 1906-03-02 15:00:00 NR -18.8431 52.0760 main 292 272 __________P___ -1 -18.8431 52.0760 7 9 220
1906060S15058 1906 9 SI MM NOT_NAMED 1906-03-02 18:00:00 NR -19.2000 51.8000 main 276 260 __________O___ -1 -19.2000 51.8000 7 9 213
1906060S15058 1906 9 SI MM NOT_NAMED 1906-03-02 21:00:00 NR -19.6259 51.5361 main 260 257 __________P___ -1 -19.6259 51.5361 7 10 206
1906060S15058 1906 9 SI MM NOT_NAMED 1906-03-03 00:00:00 NR -20.0846 51.3359 main 261 254 __________P___ -1 -20.0846 51.3359 7 10 198
1906060S15058 1906 9 SI MM NOT_NAMED 1906-03-03 03:00:00 NR -20.5509 51.2177 main 259 259 __________P___ -1 -20.5509 51.2177 7 9 188
1906060S15058 1906 9 SI MM NOT_NAMED 1906-03-03 06:00:00 NR -21.0000 51.2000 main 273 273 __________O___ -1 -21.0000 51.2000 7 9 175
1906060S15058 1906 9 SI MM NOT_NAMED 1906-03-03 09:00:00 NR -21.4046 51.2863 main 301 301 __________P___ -1 -21.4046 51.2863 7 8 162
1906060S15058 1906 9 SI MM NOT_NAMED 1906-03-03 12:00:00 NR -21.7875 51.4715 main 333 333 __________P___ -1 -21.7875 51.4715 7 9 152
1906060S15058 1906 9 SI MM NOT_NAMED 1906-03-03 15:00:00 NR -22.1515 51.7210 main 362 360 __________P___ -1 -22.1515 51.7210 7 9 146
1906060S15058 1906 9 SI MM NOT_NAMED 1906-03-03 18:00:00 NR -22.5000 52.0000 main 365 355 __________O___ -1 -22.5000 52.0000 7 8 145
1906060S15058 1906 9 SI MM NOT_NAMED 1906-03-03 21:00:00 NR -22.8310 52.2339 main 360 351 __________P___ -1 -22.8310 52.2339 7 8 145
1906060S15058 1906 9 SI MM NOT_NAMED 1906-03-04 00:00:00 NR -23.1496 52.4912 main 351 348 __________P___ -1 -23.1496 52.4912 7 8 142
1906060S15058 1906 9 SI MM NOT_NAMED 1906-03-04 03:00:00 NR -23.4684 52.7779 main 355 349 __________P___ -1 -23.4684 52.7779 7 9 139
1906060S15058 1906 9 SI MM NOT_NAMED 1906-03-04 06:00:00 NR -23.8000 53.1000 main 359 359 __________O___ -1 -23.8000 53.1000 7 10 138
1906060S15058 1906 9 SI MM NOT_NAMED 1906-03-04 09:00:00 NR -24.1772 53.4757 main 372 372 __________P___ -1 -24.1772 53.4757 7 11 137
1906060S15058 1906 9 SI MM NOT_NAMED 1906-03-04 12:00:00 NR -24.5654 53.8842 main 395 392 __________P___ -1 -24.5654 53.8842 7 11 136
1906060S15058 1906 9 SI MM NOT_NAMED 1906-03-04 15:00:00 NR -24.9459 54.3007 main 413 413 __________P___ -1 -24.9459 54.3007 7 10 135
1906060S15058 1906 9 SI MM NOT_NAMED 1906-03-04 18:00:00 NR -25.3000 54.7000 main 445 445 __________O___ -1 -25.3000 54.7000 7 10 134
1906060S15058 1906 9 SI MM NOT_NAMED 1906-03-04 21:00:00 NR -25.6142 55.0624 main 472 472 __________P___ -1 -25.6142 55.0624 7 9 134
1906060S15058 1906 9 SI MM NOT_NAMED 1906-03-05 00:00:00 NR -25.8949 55.3925 main 503 503 __________P___ -1 -25.8949 55.3925 7 8 133
1906060S15058 1906 9 SI MM NOT_NAMED 1906-03-05 03:00:00 NR -26.1532 55.7013 main 536 536 __________P___ -1 -26.1532 55.7013 7 7 133
1906060S15058 1906 9 SI MM NOT_NAMED 1906-03-05 06:00:00 NR -26.4000 56.0000 main 560 __________O___ -1 -26.4000 56.0000 7 7 133

About IBTrACS Database

This database is a web-friendly format of International Best Track Archive for Climate Stewardship (IBTrACS), a global best track data archive curated by NOAA dating back to 1842.

Updated: 2021-11-26